sensor_id;sensor_type;location;lat;lon;timestamp;P1;durP1;ratioP1;P2;durP2;ratioP2
1014;SDS011;8170;48.118;11.628;2023-01-19T00:01:04;14.73;;;12.23;;
1014;SDS011;8170;48.118;11.628;2023-01-19T00:02:10;15.38;;;11.32;;
1014;SDS011;8170;48.118;11.628;2023-01-19T00:03:23;17.05;;;12.05;;
1014;SDS011;8170;48.118;11.628;2023-01-19T00:04:31;15.00;;;12.00;;
1014;SDS011;8170;48.118;11.628;2023-01-19T00:05:44;15.57;;;10.95;;
1014;SDS011;8170;48.118;11.628;2023-01-19T00:07:03;17.00;;;11.68;;
1014;SDS011;8170;48.118;11.628;2023-01-19T00:08:24;15.18;;;11.60;;
1014;SDS011;8170;48.118;11.628;2023-01-19T00:09:35;15.38;;;11.70;;
1014;SDS011;8170;48.118;11.628;2023-01-19T00:11:10;14.90;;;11.55;;
1014;SDS011;8170;48.118;11.628;2023-01-19T00:12:31;18.55;;;12.70;;
1014;SDS011;8170;48.118;11.628;2023-01-19T00:13:36;15.18;;;12.50;;
1014;SDS011;8170;48.118;11.628;2023-01-19T00:14:55;18.88;;;13.45;;
1014;SDS011;8170;48.118;11.628;2023-01-19T00:16:12;16.55;;;12.73;;
1014;SDS011;8170;48.118;11.628;2023-01-19T00:17:18;16.38;;;11.75;;
1014;SDS011;8170;48.118;11.628;2023-01-19T00:18:37;19.33;;;12.20;;
1014;SDS011;8170;48.118;11.628;2023-01-19T00:19:46;16.48;;;12.00;;
1014;SDS011;8170;48.118;11.628;2023-01-19T00:20:59;18.35;;;12.80;;
1014;SDS011;8170;48.118;11.628;2023-01-19T00:22:13;13.43;;;11.40;;
1014;SDS011;8170;48.118;11.628;2023-01-19T00:24:00;15.43;;;12.98;;
1014;SDS011;8170;48.118;11.628;2023-01-19T00:25:13;16.67;;;12.88;;
1014;SDS011;8170;48.118;11.628;2023-01-19T00:26:27;16.15;;;12.43;;
1014;SDS011;8170;48.118;11.628;2023-01-19T00:27:47;17.58;;;11.80;;
1014;SDS011;8170;48.118;11.628;2023-01-19T00:28:53;17.70;;;14.00;;
1014;SDS011;8170;48.118;11.628;2023-01-19T00:30:15;15.55;;;12.18;;
1014;SDS011;8170;48.118;11.628;2023-01-19T00:31:29;15.18;;;11.82;;
1014;SDS011;8170;48.118;11.628;2023-01-19T00:32:47;18.40;;;12.88;;
1014;SDS011;8170;48.118;11.628;2023-01-19T00:33:55;16.27;;;12.27;;
1014;SDS011;8170;48.118;11.628;2023-01-19T00:34:59;15.35;;;11.98;;
1014;SDS011;8170;48.118;11.628;2023-01-19T00:36:03;16.02;;;11.90;;
1014;SDS011;8170;48.118;11.628;2023-01-19T00:37:11;16.63;;;12.05;;
1014;SDS011;8170;48.118;11.628;2023-01-19T00:38:17;18.67;;;12.05;;
1014;SDS011;8170;48.118;11.628;2023-01-19T00:39:23;14.27;;;10.88;;
1014;SDS011;8170;48.118;11.628;2023-01-19T00:40:47;13.80;;;11.15;;
1014;SDS011;8170;48.118;11.628;2023-01-19T00:41:55;15.18;;;11.25;;
1014;SDS011;8170;48.118;11.628;2023-01-19T00:43:28;14.00;;;9.57;;
1014;SDS011;8170;48.118;11.628;2023-01-19T00:44:50;14.05;;;9.88;;
1014;SDS011;8170;48.118;11.628;2023-01-19T00:45:57;12.18;;;10.02;;
1014;SDS011;8170;48.118;11.628;2023-01-19T00:47:05;13.25;;;9.65;;
1014;SDS011;8170;48.118;11.628;2023-01-19T00:48:11;13.55;;;10.63;;
1014;SDS011;8170;48.118;11.628;2023-01-19T00:49:22;14.38;;;10.10;;
1014;SDS011;8170;48.118;11.628;2023-01-19T00:50:28;14.02;;;9.77;;
1014;SDS011;8170;48.118;11.628;2023-01-19T00:51:39;12.32;;;9.60;;
1014;SDS011;8170;48.118;11.628;2023-01-19T00:52:43;15.82;;;10.75;;
1014;SDS011;8170;48.118;11.628;2023-01-19T00:53:50;13.10;;;10.63;;
1014;SDS011;8170;48.118;11.628;2023-01-19T00:54:55;14.57;;;10.20;;
1014;SDS011;8170;48.118;11.628;2023-01-19T00:56:00;17.33;;;10.38;;
1014;SDS011;8170;48.118;11.628;2023-01-19T00:57:09;17.65;;;11.80;;
1014;SDS011;8170;48.118;11.628;2023-01-19T00:58:13;13.57;;;11.07;;
1014;SDS011;8170;48.118;11.628;2023-01-19T00:59:17;14.98;;;10.35;;
1014;SDS011;8170;48.118;11.628;2023-01-19T01:00:20;15.65;;;11.05;;
1014;SDS011;8170;48.118;11.628;2023-01-19T01:01:23;14.77;;;10.15;;
1014;SDS011;8170;48.118;11.628;2023-01-19T01:02:47;11.73;;;9.98;;
1014;SDS011;8170;48.118;11.628;2023-01-19T01:03:51;11.88;;;9.57;;
1014;SDS011;8170;48.118;11.628;2023-01-19T01:04:53;12.38;;;10.15;;
1014;SDS011;8170;48.118;11.628;2023-01-19T01:06:11;15.98;;;11.00;;
1014;SDS011;8170;48.118;11.628;2023-01-19T01:07:44;15.35;;;10.73;;
1014;SDS011;8170;48.118;11.628;2023-01-19T01:09:11;13.52;;;10.25;;
1014;SDS011;8170;48.118;11.628;2023-01-19T01:10:32;16.02;;;11.90;;
1014;SDS011;8170;48.118;11.628;2023-01-19T01:11:36;16.35;;;11.35;;
1014;SDS011;8170;48.118;11.628;2023-01-19T01:12:40;14.55;;;12.15;;
1014;SDS011;8170;48.118;11.628;2023-01-19T01:13:58;15.48;;;12.43;;
1014;SDS011;8170;48.118;11.628;2023-01-19T01:15:03;19.98;;;12.95;;
1014;SDS011;8170;48.118;11.628;2023-01-19T01:16:06;17.85;;;12.93;;
1014;SDS011;8170;48.118;11.628;2023-01-19T01:17:10;17.25;;;12.35;;
1014;SDS011;8170;48.118;11.628;2023-01-19T01:18:15;18.25;;;12.40;;
1014;SDS011;8170;48.118;11.628;2023-01-19T01:19:18;16.65;;;12.85;;
1014;SDS011;8170;48.118;11.628;2023-01-19T01:20:21;15.48;;;11.85;;
1014;SDS011;8170;48.118;11.628;2023-01-19T01:21:27;15.98;;;12.25;;
1014;SDS011;8170;48.118;11.628;2023-01-19T01:22:29;15.45;;;12.07;;
1014;SDS011;8170;48.118;11.628;2023-01-19T01:23:32;15.73;;;11.88;;
1014;SDS011;8170;48.118;11.628;2023-01-19T01:24:35;16.08;;;12.15;;
1014;SDS011;8170;48.118;11.628;2023-01-19T01:25:38;14.90;;;12.63;;
1014;SDS011;8170;48.118;11.628;2023-01-19T01:26:40;16.92;;;12.52;;
1014;SDS011;8170;48.118;11.628;2023-01-19T01:27:44;16.38;;;10.52;;
1014;SDS011;8170;48.118;11.628;2023-01-19T01:28:47;13.68;;;11.52;;
1014;SDS011;8170;48.118;11.628;2023-01-19T01:29:51;15.68;;;11.90;;
1014;SDS011;8170;48.118;11.628;2023-01-19T01:30:55;15.13;;;11.07;;
1014;SDS011;8170;48.118;11.628;2023-01-19T01:31:58;13.40;;;11.27;;
1014;SDS011;8170;48.118;11.628;2023-01-19T01:33:01;12.00;;;10.70;;
1014;SDS011;8170;48.118;11.628;2023-01-19T01:34:04;16.77;;;11.77;;
1014;SDS011;8170;48.118;11.628;2023-01-19T01:35:07;15.38;;;12.07;;
1014;SDS011;8170;48.118;11.628;2023-01-19T01:36:11;16.48;;;12.13;;
1014;SDS011;8170;48.118;11.628;2023-01-19T01:37:14;14.98;;;12.98;;
1014;SDS011;8170;48.118;11.628;2023-01-19T01:38:17;17.60;;;12.23;;
1014;SDS011;8170;48.118;11.628;2023-01-19T01:39:19;15.27;;;12.55;;
1014;SDS011;8170;48.118;11.628;2023-01-19T01:40:23;19.15;;;14.35;;
1014;SDS011;8170;48.118;11.628;2023-01-19T01:41:25;15.93;;;12.43;;
1014;SDS011;8170;48.118;11.628;2023-01-19T01:42:29;19.33;;;12.40;;
1014;SDS011;8170;48.118;11.628;2023-01-19T01:43:46;18.52;;;13.70;;
1014;SDS011;8170;48.118;11.628;2023-01-19T01:44:52;15.85;;;12.93;;
1014;SDS011;8170;48.118;11.628;2023-01-19T01:45:56;15.70;;;12.63;;
1014;SDS011;8170;48.118;11.628;2023-01-19T01:46:59;15.80;;;12.63;;
1014;SDS011;8170;48.118;11.628;2023-01-19T01:48:03;18.13;;;13.88;;
1014;SDS011;8170;48.118;11.628;2023-01-19T01:49:11;14.38;;;12.27;;
1014;SDS011;8170;48.118;11.628;2023-01-19T01:50:17;15.70;;;12.80;;
1014;SDS011;8170;48.118;11.628;2023-01-19T01:51:23;17.70;;;13.52;;
1014;SDS011;8170;48.118;11.628;2023-01-19T01:52:30;16.50;;;12.38;;
1014;SDS011;8170;48.118;11.628;2023-01-19T01:53:35;17.73;;;13.25;;
1014;SDS011;8170;48.118;11.628;2023-01-19T01:54:37;15.85;;;13.45;;
1014;SDS011;8170;48.118;11.628;2023-01-19T01:55:42;17.98;;;13.32;;
1014;SDS011;8170;48.118;11.628;2023-01-19T01:56:49;14.35;;;12.52;;
1014;SDS011;8170;48.118;11.628;2023-01-19T01:57:54;20.05;;;13.43;;
1014;SDS011;8170;48.118;11.628;2023-01-19T01:59:00;14.27;;;11.52;;
1014;SDS011;8170;48.118;11.628;2023-01-19T02:00:06;16.02;;;13.57;;
1014;SDS011;8170;48.118;11.628;2023-01-19T02:01:11;13.90;;;12.23;;
1014;SDS011;8170;48.118;11.628;2023-01-19T02:02:31;15.93;;;13.13;;
1014;SDS011;8170;48.118;11.628;2023-01-19T02:03:52;19.05;;;13.43;;
1014;SDS011;8170;48.118;11.628;2023-01-19T02:04:56;17.20;;;13.65;;
1014;SDS011;8170;48.118;11.628;2023-01-19T02:06:04;18.25;;;14.20;;
1014;SDS011;8170;48.118;11.628;2023-01-19T02:07:08;16.55;;;12.68;;
1014;SDS011;8170;48.118;11.628;2023-01-19T02:08:36;16.30;;;12.93;;
1014;SDS011;8170;48.118;11.628;2023-01-19T02:10:00;17.38;;;12.02;;
1014;SDS011;8170;48.118;11.628;2023-01-19T02:11:20;16.63;;;10.82;;
1014;SDS011;8170;48.118;11.628;2023-01-19T02:12:41;14.65;;;11.85;;
1014;SDS011;8170;48.118;11.628;2023-01-19T02:14:03;15.88;;;11.90;;
1014;SDS011;8170;48.118;11.628;2023-01-19T02:15:13;16.98;;;12.57;;
1014;SDS011;8170;48.118;11.628;2023-01-19T02:16:18;12.70;;;10.95;;
1014;SDS011;8170;48.118;11.628;2023-01-19T02:17:21;14.07;;;11.68;;
1014;SDS011;8170;48.118;11.628;2023-01-19T02:18:25;20.42;;;12.18;;
1014;SDS011;8170;48.118;11.628;2023-01-19T02:19:32;14.40;;;11.88;;
1014;SDS011;8170;48.118;11.628;2023-01-19T02:20:41;14.18;;;11.77;;
1014;SDS011;8170;48.118;11.628;2023-01-19T02:21:51;13.57;;;11.10;;
1014;SDS011;8170;48.118;11.628;2023-01-19T02:22:58;15.15;;;11.07;;
1014;SDS011;8170;48.118;11.628;2023-01-19T02:24:06;14.15;;;10.63;;
1014;SDS011;8170;48.118;11.628;2023-01-19T02:25:09;13.15;;;11.23;;
1014;SDS011;8170;48.118;11.628;2023-01-19T02:26:13;12.80;;;10.35;;
1014;SDS011;8170;48.118;11.628;2023-01-19T02:27:19;12.95;;;10.73;;
1014;SDS011;8170;48.118;11.628;2023-01-19T02:28:21;12.73;;;10.63;;
1014;SDS011;8170;48.118;11.628;2023-01-19T02:29:26;11.60;;;10.40;;
1014;SDS011;8170;48.118;11.628;2023-01-19T02:30:29;15.07;;;11.73;;
1014;SDS011;8170;48.118;11.628;2023-01-19T02:31:33;15.25;;;11.40;;
1014;SDS011;8170;48.118;11.628;2023-01-19T02:32:37;12.50;;;9.65;;
1014;SDS011;8170;48.118;11.628;2023-01-19T02:33:40;15.00;;;11.45;;
1014;SDS011;8170;48.118;11.628;2023-01-19T02:34:43;13.30;;;10.73;;
1014;SDS011;8170;48.118;11.628;2023-01-19T02:35:46;14.30;;;10.30;;
1014;SDS011;8170;48.118;11.628;2023-01-19T02:36:51;15.80;;;12.60;;
1014;SDS011;8170;48.118;11.628;2023-01-19T02:37:57;13.27;;;11.02;;
1014;SDS011;8170;48.118;11.628;2023-01-19T02:39:01;14.45;;;10.85;;
1014;SDS011;8170;48.118;11.628;2023-01-19T02:40:09;12.45;;;9.75;;
1014;SDS011;8170;48.118;11.628;2023-01-19T02:41:14;13.90;;;9.50;;
1014;SDS011;8170;48.118;11.628;2023-01-19T02:42:22;12.60;;;10.40;;
1014;SDS011;8170;48.118;11.628;2023-01-19T02:43:27;14.38;;;9.70;;
1014;SDS011;8170;48.118;11.628;2023-01-19T02:44:32;15.52;;;10.77;;
1014;SDS011;8170;48.118;11.628;2023-01-19T02:45:36;10.25;;;8.70;;
1014;SDS011;8170;48.118;11.628;2023-01-19T02:46:41;11.60;;;8.93;;
1014;SDS011;8170;48.118;11.628;2023-01-19T02:47:44;10.10;;;9.00;;
1014;SDS011;8170;48.118;11.628;2023-01-19T02:48:49;10.13;;;8.88;;
1014;SDS011;8170;48.118;11.628;2023-01-19T02:49:55;10.93;;;8.77;;
1014;SDS011;8170;48.118;11.628;2023-01-19T02:50:58;10.23;;;7.90;;
1014;SDS011;8170;48.118;11.628;2023-01-19T02:52:04;9.88;;;8.68;;
1014;SDS011;8170;48.118;11.628;2023-01-19T02:53:16;10.35;;;8.15;;
1014;SDS011;8170;48.118;11.628;2023-01-19T02:54:39;11.18;;;7.97;;
1014;SDS011;8170;48.118;11.628;2023-01-19T02:55:57;10.60;;;7.30;;
1014;SDS011;8170;48.118;11.628;2023-01-19T02:57:10;12.82;;;7.90;;
1014;SDS011;8170;48.118;11.628;2023-01-19T02:58:21;9.38;;;7.85;;
1014;SDS011;8170;48.118;11.628;2023-01-19T02:59:35;13.02;;;8.02;;
1014;SDS011;8170;48.118;11.628;2023-01-19T03:00:51;12.20;;;7.47;;
1014;SDS011;8170;48.118;11.628;2023-01-19T03:02:16;7.80;;;7.00;;
1014;SDS011;8170;48.118;11.628;2023-01-19T03:03:29;10.60;;;6.90;;
1014;SDS011;8170;48.118;11.628;2023-01-19T03:04:39;9.05;;;7.53;;
1014;SDS011;8170;48.118;11.628;2023-01-19T03:05:56;18.25;;;8.10;;
1014;SDS011;8170;48.118;11.628;2023-01-19T03:07:07;11.07;;;7.57;;
1014;SDS011;8170;48.118;11.628;2023-01-19T03:08:13;10.25;;;7.43;;
1014;SDS011;8170;48.118;11.628;2023-01-19T03:09:25;7.90;;;6.85;;
1014;SDS011;8170;48.118;11.628;2023-01-19T03:10:35;8.20;;;6.75;;
1014;SDS011;8170;48.118;11.628;2023-01-19T03:11:58;13.35;;;7.50;;
1014;SDS011;8170;48.118;11.628;2023-01-19T03:13:07;8.05;;;6.40;;
1014;SDS011;8170;48.118;11.628;2023-01-19T03:14:15;10.90;;;6.57;;
1014;SDS011;8170;48.118;11.628;2023-01-19T03:15:22;9.90;;;7.25;;
1014;SDS011;8170;48.118;11.628;2023-01-19T03:16:33;8.95;;;6.75;;
1014;SDS011;8170;48.118;11.628;2023-01-19T03:17:41;11.18;;;7.05;;
1014;SDS011;8170;48.118;11.628;2023-01-19T03:18:48;10.38;;;7.40;;
1014;SDS011;8170;48.118;11.628;2023-01-19T03:19:54;10.57;;;6.25;;
1014;SDS011;8170;48.118;11.628;2023-01-19T03:20:58;9.15;;;6.90;;
1014;SDS011;8170;48.118;11.628;2023-01-19T03:22:06;10.00;;;6.75;;
1014;SDS011;8170;48.118;11.628;2023-01-19T03:23:13;12.82;;;7.60;;
1014;SDS011;8170;48.118;11.628;2023-01-19T03:24:18;8.15;;;6.88;;
1014;SDS011;8170;48.118;11.628;2023-01-19T03:25:22;7.88;;;6.18;;
1014;SDS011;8170;48.118;11.628;2023-01-19T03:26:27;11.15;;;7.70;;
1014;SDS011;8170;48.118;11.628;2023-01-19T03:27:35;14.48;;;7.63;;
1014;SDS011;8170;48.118;11.628;2023-01-19T03:28:41;9.60;;;6.95;;
1014;SDS011;8170;48.118;11.628;2023-01-19T03:29:48;10.52;;;7.68;;
1014;SDS011;8170;48.118;11.628;2023-01-19T03:30:56;8.60;;;6.95;;
1014;SDS011;8170;48.118;11.628;2023-01-19T03:32:02;14.57;;;7.15;;
1014;SDS011;8170;48.118;11.628;2023-01-19T03:33:11;10.00;;;8.10;;
1014;SDS011;8170;48.118;11.628;2023-01-19T03:34:16;8.85;;;7.22;;
1014;SDS011;8170;48.118;11.628;2023-01-19T03:35:22;10.98;;;7.38;;
1014;SDS011;8170;48.118;11.628;2023-01-19T03:36:30;9.50;;;7.50;;
1014;SDS011;8170;48.118;11.628;2023-01-19T03:37:36;11.27;;;6.70;;
1014;SDS011;8170;48.118;11.628;2023-01-19T03:38:42;12.85;;;8.18;;
1014;SDS011;8170;48.118;11.628;2023-01-19T03:39:48;9.95;;;7.43;;
1014;SDS011;8170;48.118;11.628;2023-01-19T03:40:51;11.82;;;9.23;;
1014;SDS011;8170;48.118;11.628;2023-01-19T03:41:57;12.07;;;8.35;;
1014;SDS011;8170;48.118;11.628;2023-01-19T03:43:04;13.25;;;8.30;;
1014;SDS011;8170;48.118;11.628;2023-01-19T03:44:09;10.45;;;8.23;;
1014;SDS011;8170;48.118;11.628;2023-01-19T03:45:12;17.88;;;8.57;;
1014;SDS011;8170;48.118;11.628;2023-01-19T03:46:16;12.45;;;8.43;;
1014;SDS011;8170;48.118;11.628;2023-01-19T03:47:20;12.23;;;9.43;;
1014;SDS011;8170;48.118;11.628;2023-01-19T03:48:25;15.35;;;8.82;;
1014;SDS011;8170;48.118;11.628;2023-01-19T03:49:28;10.68;;;8.60;;
1014;SDS011;8170;48.118;11.628;2023-01-19T03:50:32;10.73;;;9.35;;
1014;SDS011;8170;48.118;11.628;2023-01-19T03:51:35;14.68;;;10.45;;
1014;SDS011;8170;48.118;11.628;2023-01-19T03:52:39;11.52;;;9.32;;
1014;SDS011;8170;48.118;11.628;2023-01-19T03:53:41;12.32;;;10.82;;
1014;SDS011;8170;48.118;11.628;2023-01-19T03:54:44;11.68;;;10.00;;
1014;SDS011;8170;48.118;11.628;2023-01-19T03:55:47;12.65;;;9.95;;
1014;SDS011;8170;48.118;11.628;2023-01-19T03:56:54;10.88;;;9.77;;
1014;SDS011;8170;48.118;11.628;2023-01-19T03:57:56;11.70;;;9.10;;
1014;SDS011;8170;48.118;11.628;2023-01-19T03:59:01;15.50;;;10.02;;
1014;SDS011;8170;48.118;11.628;2023-01-19T04:00:06;11.57;;;9.27;;
1014;SDS011;8170;48.118;11.628;2023-01-19T04:01:12;11.15;;;9.00;;
1014;SDS011;8170;48.118;11.628;2023-01-19T04:02:15;12.50;;;9.70;;
1014;SDS011;8170;48.118;11.628;2023-01-19T04:03:18;12.40;;;10.60;;
1014;SDS011;8170;48.118;11.628;2023-01-19T04:04:21;13.27;;;10.73;;
1014;SDS011;8170;48.118;11.628;2023-01-19T04:05:25;14.65;;;10.70;;
1014;SDS011;8170;48.118;11.628;2023-01-19T04:06:27;17.58;;;10.63;;
1014;SDS011;8170;48.118;11.628;2023-01-19T04:07:34;11.52;;;10.32;;
1014;SDS011;8170;48.118;11.628;2023-01-19T04:08:37;14.90;;;10.02;;
1014;SDS011;8170;48.118;11.628;2023-01-19T04:09:41;11.50;;;9.57;;
1014;SDS011;8170;48.118;11.628;2023-01-19T04:10:43;12.73;;;10.25;;
1014;SDS011;8170;48.118;11.628;2023-01-19T04:11:46;12.77;;;9.60;;
1014;SDS011;8170;48.118;11.628;2023-01-19T04:12:48;13.98;;;11.02;;
1014;SDS011;8170;48.118;11.628;2023-01-19T04:13:51;15.43;;;10.65;;
1014;SDS011;8170;48.118;11.628;2023-01-19T04:14:55;12.23;;;9.75;;
1014;SDS011;8170;48.118;11.628;2023-01-19T04:15:58;11.50;;;10.30;;
1014;SDS011;8170;48.118;11.628;2023-01-19T04:17:01;11.80;;;9.82;;
1014;SDS011;8170;48.118;11.628;2023-01-19T04:18:04;13.15;;;10.50;;
1014;SDS011;8170;48.118;11.628;2023-01-19T04:19:07;14.02;;;10.15;;
1014;SDS011;8170;48.118;11.628;2023-01-19T04:20:10;12.85;;;11.10;;
1014;SDS011;8170;48.118;11.628;2023-01-19T04:21:12;14.73;;;10.50;;
1014;SDS011;8170;48.118;11.628;2023-01-19T04:22:16;17.70;;;11.45;;
1014;SDS011;8170;48.118;11.628;2023-01-19T04:23:18;15.02;;;10.95;;
1014;SDS011;8170;48.118;11.628;2023-01-19T04:24:22;12.88;;;10.43;;
1014;SDS011;8170;48.118;11.628;2023-01-19T04:25:24;14.88;;;10.90;;
1014;SDS011;8170;48.118;11.628;2023-01-19T04:26:27;13.57;;;11.23;;
1014;SDS011;8170;48.118;11.628;2023-01-19T04:27:30;17.58;;;11.73;;
1014;SDS011;8170;48.118;11.628;2023-01-19T04:28:40;12.18;;;10.65;;
1014;SDS011;8170;48.118;11.628;2023-01-19T04:29:44;12.88;;;11.30;;
1014;SDS011;8170;48.118;11.628;2023-01-19T04:30:49;14.57;;;11.65;;
1014;SDS011;8170;48.118;11.628;2023-01-19T04:31:52;16.10;;;13.13;;
1014;SDS011;8170;48.118;11.628;2023-01-19T04:32:57;12.50;;;11.20;;
1014;SDS011;8170;48.118;11.628;2023-01-19T04:34:00;12.98;;;11.35;;
1014;SDS011;8170;48.118;11.628;2023-01-19T04:35:03;14.20;;;11.00;;
1014;SDS011;8170;48.118;11.628;2023-01-19T04:36:06;18.27;;;10.35;;
1014;SDS011;8170;48.118;11.628;2023-01-19T04:37:10;14.93;;;12.38;;
1014;SDS011;8170;48.118;11.628;2023-01-19T04:38:13;14.85;;;11.57;;
1014;SDS011;8170;48.118;11.628;2023-01-19T04:39:15;14.82;;;11.75;;
1014;SDS011;8170;48.118;11.628;2023-01-19T04:40:19;18.80;;;13.35;;
1014;SDS011;8170;48.118;11.628;2023-01-19T04:41:21;15.77;;;12.10;;
1014;SDS011;8170;48.118;11.628;2023-01-19T04:42:24;14.48;;;12.25;;
1014;SDS011;8170;48.118;11.628;2023-01-19T04:43:28;15.73;;;12.25;;
1014;SDS011;8170;48.118;11.628;2023-01-19T04:44:31;13.32;;;10.82;;
1014;SDS011;8170;48.118;11.628;2023-01-19T04:45:33;15.55;;;11.85;;
1014;SDS011;8170;48.118;11.628;2023-01-19T04:46:38;17.20;;;11.38;;
1014;SDS011;8170;48.118;11.628;2023-01-19T04:47:40;14.95;;;11.55;;
1014;SDS011;8170;48.118;11.628;2023-01-19T04:48:44;13.65;;;11.80;;
1014;SDS011;8170;48.118;11.628;2023-01-19T04:49:46;14.68;;;11.98;;
1014;SDS011;8170;48.118;11.628;2023-01-19T04:50:49;16.13;;;13.27;;
1014;SDS011;8170;48.118;11.628;2023-01-19T04:51:51;16.90;;;12.45;;
1014;SDS011;8170;48.118;11.628;2023-01-19T04:52:55;14.23;;;12.32;;
1014;SDS011;8170;48.118;11.628;2023-01-19T04:53:57;15.32;;;12.95;;
1014;SDS011;8170;48.118;11.628;2023-01-19T04:55:02;18.88;;;14.65;;
1014;SDS011;8170;48.118;11.628;2023-01-19T04:56:05;15.40;;;11.00;;
1014;SDS011;8170;48.118;11.628;2023-01-19T04:57:08;13.98;;;11.65;;
1014;SDS011;8170;48.118;11.628;2023-01-19T04:58:10;20.90;;;12.70;;
1014;SDS011;8170;48.118;11.628;2023-01-19T04:59:13;17.50;;;14.30;;
1014;SDS011;8170;48.118;11.628;2023-01-19T05:00:16;19.83;;;13.50;;
1014;SDS011;8170;48.118;11.628;2023-01-19T05:01:21;14.35;;;12.15;;
1014;SDS011;8170;48.118;11.628;2023-01-19T05:02:24;17.75;;;12.73;;
1014;SDS011;8170;48.118;11.628;2023-01-19T05:03:28;17.95;;;13.45;;
1014;SDS011;8170;48.118;11.628;2023-01-19T05:04:30;15.48;;;13.27;;
1014;SDS011;8170;48.118;11.628;2023-01-19T05:05:34;14.52;;;12.10;;
1014;SDS011;8170;48.118;11.628;2023-01-19T05:06:36;16.50;;;13.10;;
1014;SDS011;8170;48.118;11.628;2023-01-19T05:07:39;17.50;;;13.13;;
1014;SDS011;8170;48.118;11.628;2023-01-19T05:08:41;11.77;;;10.27;;
1014;SDS011;8170;48.118;11.628;2023-01-19T05:09:45;14.02;;;12.23;;
1014;SDS011;8170;48.118;11.628;2023-01-19T05:10:48;15.55;;;12.40;;
1014;SDS011;8170;48.118;11.628;2023-01-19T05:11:51;14.73;;;12.38;;
1014;SDS011;8170;48.118;11.628;2023-01-19T05:12:53;22.45;;;13.60;;
1014;SDS011;8170;48.118;11.628;2023-01-19T05:13:57;14.02;;;11.55;;
1014;SDS011;8170;48.118;11.628;2023-01-19T05:14:59;15.50;;;11.27;;
1014;SDS011;8170;48.118;11.628;2023-01-19T05:16:03;13.68;;;11.70;;
1014;SDS011;8170;48.118;11.628;2023-01-19T05:17:07;14.98;;;11.40;;
1014;SDS011;8170;48.118;11.628;2023-01-19T05:18:14;13.23;;;11.55;;
1014;SDS011;8170;48.118;11.628;2023-01-19T05:19:19;12.48;;;10.93;;
1014;SDS011;8170;48.118;11.628;2023-01-19T05:20:27;14.15;;;11.40;;
1014;SDS011;8170;48.118;11.628;2023-01-19T05:21:29;16.13;;;12.50;;
1014;SDS011;8170;48.118;11.628;2023-01-19T05:22:32;13.50;;;11.63;;
1014;SDS011;8170;48.118;11.628;2023-01-19T05:23:34;19.95;;;15.20;;
1014;SDS011;8170;48.118;11.628;2023-01-19T05:24:38;15.10;;;12.20;;
1014;SDS011;8170;48.118;11.628;2023-01-19T05:25:41;20.17;;;14.27;;
1014;SDS011;8170;48.118;11.628;2023-01-19T05:26:44;18.83;;;14.60;;
1014;SDS011;8170;48.118;11.628;2023-01-19T05:27:47;15.32;;;11.73;;
1014;SDS011;8170;48.118;11.628;2023-01-19T05:28:50;20.50;;;13.07;;
1014;SDS011;8170;48.118;11.628;2023-01-19T05:29:52;16.67;;;13.48;;
1014;SDS011;8170;48.118;11.628;2023-01-19T05:30:55;13.13;;;11.50;;
1014;SDS011;8170;48.118;11.628;2023-01-19T05:31:58;15.00;;;12.13;;
1014;SDS011;8170;48.118;11.628;2023-01-19T05:33:01;16.60;;;13.15;;
1014;SDS011;8170;48.118;11.628;2023-01-19T05:34:05;15.32;;;12.80;;
1014;SDS011;8170;48.118;11.628;2023-01-19T05:35:09;16.38;;;13.50;;
1014;SDS011;8170;48.118;11.628;2023-01-19T05:36:11;14.80;;;12.63;;
1014;SDS011;8170;48.118;11.628;2023-01-19T05:37:14;15.70;;;13.00;;
1014;SDS011;8170;48.118;11.628;2023-01-19T05:38:16;19.45;;;14.38;;
1014;SDS011;8170;48.118;11.628;2023-01-19T05:39:34;16.25;;;13.70;;
1014;SDS011;8170;48.118;11.628;2023-01-19T05:40:36;17.50;;;14.65;;
1014;SDS011;8170;48.118;11.628;2023-01-19T05:41:40;19.58;;;14.90;;
1014;SDS011;8170;48.118;11.628;2023-01-19T05:42:42;18.25;;;14.43;;
1014;SDS011;8170;48.118;11.628;2023-01-19T05:43:45;18.55;;;15.75;;
1014;SDS011;8170;48.118;11.628;2023-01-19T05:45:01;18.45;;;14.60;;
1014;SDS011;8170;48.118;11.628;2023-01-19T05:46:04;16.75;;;14.20;;
1014;SDS011;8170;48.118;11.628;2023-01-19T05:47:06;19.20;;;14.82;;
1014;SDS011;8170;48.118;11.628;2023-01-19T05:48:10;20.10;;;16.30;;
1014;SDS011;8170;48.118;11.628;2023-01-19T05:49:12;18.17;;;13.88;;
1014;SDS011;8170;48.118;11.628;2023-01-19T05:50:16;14.95;;;12.85;;
1014;SDS011;8170;48.118;11.628;2023-01-19T05:51:18;22.13;;;16.30;;
1014;SDS011;8170;48.118;11.628;2023-01-19T05:52:21;20.30;;;14.13;;
1014;SDS011;8170;48.118;11.628;2023-01-19T05:53:25;17.27;;;14.40;;
1014;SDS011;8170;48.118;11.628;2023-01-19T05:54:29;18.58;;;14.57;;
1014;SDS011;8170;48.118;11.628;2023-01-19T05:55:31;18.00;;;14.70;;
1014;SDS011;8170;48.118;11.628;2023-01-19T05:56:35;21.98;;;13.80;;
1014;SDS011;8170;48.118;11.628;2023-01-19T05:57:37;17.95;;;14.90;;
1014;SDS011;8170;48.118;11.628;2023-01-19T05:58:40;17.45;;;13.15;;
1014;SDS011;8170;48.118;11.628;2023-01-19T05:59:42;17.27;;;13.63;;
1014;SDS011;8170;48.118;11.628;2023-01-19T06:00:47;16.92;;;14.35;;
1014;SDS011;8170;48.118;11.628;2023-01-19T06:01:50;17.33;;;14.23;;
1014;SDS011;8170;48.118;11.628;2023-01-19T06:02:53;17.45;;;13.40;;
1014;SDS011;8170;48.118;11.628;2023-01-19T06:03:56;18.30;;;15.20;;
1014;SDS011;8170;48.118;11.628;2023-01-19T06:04:59;20.13;;;17.35;;
1014;SDS011;8170;48.118;11.628;2023-01-19T06:06:03;19.98;;;16.30;;
1014;SDS011;8170;48.118;11.628;2023-01-19T06:07:05;18.17;;;15.13;;
1014;SDS011;8170;48.118;11.628;2023-01-19T06:08:08;24.02;;;16.63;;
1014;SDS011;8170;48.118;11.628;2023-01-19T06:09:10;18.67;;;15.13;;
1014;SDS011;8170;48.118;11.628;2023-01-19T06:10:14;14.93;;;13.27;;
1014;SDS011;8170;48.118;11.628;2023-01-19T06:11:17;14.98;;;13.48;;
1014;SDS011;8170;48.118;11.628;2023-01-19T06:12:21;18.17;;;14.20;;
1014;SDS011;8170;48.118;11.628;2023-01-19T06:13:23;16.02;;;12.32;;
1014;SDS011;8170;48.118;11.628;2023-01-19T06:14:26;13.75;;;12.23;;
1014;SDS011;8170;48.118;11.628;2023-01-19T06:15:29;14.20;;;12.52;;
1014;SDS011;8170;48.118;11.628;2023-01-19T06:16:33;25.20;;;16.40;;
1014;SDS011;8170;48.118;11.628;2023-01-19T06:17:36;15.98;;;13.15;;
1014;SDS011;8170;48.118;11.628;2023-01-19T06:18:39;19.95;;;14.32;;
1014;SDS011;8170;48.118;11.628;2023-01-19T06:19:41;18.73;;;14.32;;
1014;SDS011;8170;48.118;11.628;2023-01-19T06:20:45;20.83;;;15.77;;
1014;SDS011;8170;48.118;11.628;2023-01-19T06:21:47;17.33;;;13.77;;
1014;SDS011;8170;48.118;11.628;2023-01-19T06:22:55;16.63;;;13.93;;
1014;SDS011;8170;48.118;11.628;2023-01-19T06:23:57;20.38;;;16.83;;
1014;SDS011;8170;48.118;11.628;2023-01-19T06:25:00;22.42;;;16.65;;
1014;SDS011;8170;48.118;11.628;2023-01-19T06:26:03;18.98;;;13.60;;
1014;SDS011;8170;48.118;11.628;2023-01-19T06:27:06;18.65;;;14.65;;
1014;SDS011;8170;48.118;11.628;2023-01-19T06:28:09;14.90;;;12.85;;
1014;SDS011;8170;48.118;11.628;2023-01-19T06:29:12;15.30;;;13.07;;
1014;SDS011;8170;48.118;11.628;2023-01-19T06:30:16;23.17;;;16.50;;
1014;SDS011;8170;48.118;11.628;2023-01-19T06:31:18;19.60;;;15.68;;
1014;SDS011;8170;48.118;11.628;2023-01-19T06:32:23;16.73;;;13.07;;
1014;SDS011;8170;48.118;11.628;2023-01-19T06:33:25;16.58;;;14.30;;
1014;SDS011;8170;48.118;11.628;2023-01-19T06:34:29;20.35;;;17.02;;
1014;SDS011;8170;48.118;11.628;2023-01-19T06:35:32;21.48;;;15.35;;
1014;SDS011;8170;48.118;11.628;2023-01-19T06:36:36;20.02;;;15.48;;